createdAt,value
2018-09-14T00:02:28.195Z,99.90
2018-09-14T00:07:23.334Z,99.90
2018-09-14T00:12:18.242Z,99.90
2018-09-14T00:17:12.770Z,99.90
2018-09-14T00:22:07.408Z,99.90
2018-09-14T00:27:02.092Z,99.90
2018-09-14T00:31:56.663Z,99.90
2018-09-14T00:36:51.326Z,99.90
2018-09-14T00:41:45.990Z,99.90
2018-09-14T00:46:40.496Z,99.90
2018-09-14T00:51:34.968Z,99.90
2018-09-14T00:56:29.488Z,99.90
2018-09-14T01:01:25.032Z,99.90
2018-09-14T01:06:19.553Z,99.90
2018-09-14T01:11:14.263Z,99.90
2018-09-14T01:16:09.548Z,99.90
2018-09-14T01:21:04.855Z,99.90
2018-09-14T01:26:00.361Z,99.90
2018-09-14T01:30:55.192Z,99.90
2018-09-14T01:35:55.263Z,99.90
2018-09-14T01:40:50.102Z,99.90
2018-09-14T01:45:45.082Z,99.90
2018-09-14T01:50:40.184Z,99.90
2018-09-14T01:55:35.102Z,99.90
2018-09-14T02:00:29.558Z,99.90
2018-09-14T02:05:25.418Z,99.90
2018-09-14T02:10:24.126Z,99.90
2018-09-14T02:15:19.284Z,99.90
2018-09-14T02:20:13.792Z,99.90
2018-09-14T02:25:08.439Z,99.90
2018-09-14T02:30:02.945Z,99.90
2018-09-14T02:34:58.168Z,99.90
2018-09-14T02:39:53.416Z,99.90
2018-09-14T02:44:48.016Z,99.90
2018-09-14T02:49:42.481Z,99.90
2018-09-14T02:54:38.234Z,99.90
2018-09-14T02:59:33.651Z,99.90
2018-09-14T03:04:28.755Z,99.90
2018-09-14T03:09:23.283Z,99.90
2018-09-14T03:14:17.779Z,99.90
2018-09-14T03:19:12.228Z,99.90
2018-09-14T03:24:06.833Z,99.90
2018-09-14T03:29:02.300Z,99.90
2018-09-14T03:33:56.764Z,99.90
2018-09-14T03:38:51.247Z,99.90
2018-09-14T03:43:45.728Z,99.90
2018-09-14T03:48:40.233Z,99.90
2018-09-14T03:53:34.736Z,99.90
2018-09-14T03:58:29.233Z,99.90
2018-09-14T04:03:24.063Z,99.90
2018-09-14T04:08:18.524Z,99.90
2018-09-14T04:13:13.223Z,99.90
2018-09-14T04:18:07.958Z,99.90
2018-09-14T04:23:02.445Z,99.90
2018-09-14T04:27:57.392Z,99.90
2018-09-14T04:32:51.916Z,99.90
2018-09-14T04:37:46.712Z,99.90
2018-09-14T04:42:41.232Z,99.90
2018-09-14T04:47:35.768Z,99.90
2018-09-14T04:52:30.234Z,99.90
2018-09-14T04:57:24.779Z,99.90
2018-09-14T05:02:19.418Z,99.90
2018-09-14T05:07:13.918Z,99.90
2018-09-14T05:12:08.530Z,99.90
2018-09-14T05:17:03.040Z,99.90
2018-09-14T05:21:57.536Z,99.90
2018-09-14T05:26:52.018Z,99.90
2018-09-14T05:31:46.493Z,99.90
2018-09-14T05:36:40.963Z,99.90
2018-09-14T05:41:35.444Z,99.90
2018-09-14T05:46:30.003Z,99.90
2018-09-14T05:51:24.543Z,99.90
2018-09-14T05:56:19.052Z,99.90
2018-09-14T06:01:13.525Z,99.90
2018-09-14T06:06:08.615Z,99.90
2018-09-14T06:11:03.289Z,99.90
2018-09-14T06:15:57.773Z,99.90
2018-09-14T06:20:52.652Z,99.90
2018-09-14T06:25:47.213Z,99.90
2018-09-14T06:30:41.795Z,99.90
2018-09-14T06:35:36.549Z,99.90
2018-09-14T06:40:30.986Z,99.90
2018-09-14T06:45:25.535Z,99.90
2018-09-14T06:50:20.227Z,99.90
2018-09-14T06:55:14.688Z,99.90
2018-09-14T07:00:09.540Z,99.90
2018-09-14T07:05:04.179Z,99.90
2018-09-14T07:09:58.763Z,99.90
2018-09-14T07:14:53.546Z,99.90
2018-09-14T07:19:48.027Z,99.90
2018-09-14T07:24:42.836Z,99.90
2018-09-14T07:29:54.434Z,99.90
2018-09-14T07:34:48.931Z,99.90
2018-09-14T07:39:43.398Z,99.90
2018-09-14T07:44:37.874Z,99.90
2018-09-14T07:49:32.330Z,99.90
2018-09-14T07:54:26.834Z,99.90
2018-09-14T07:59:21.641Z,99.90
2018-09-14T08:04:16.212Z,99.90
2018-09-14T08:09:12.629Z,99.90
2018-09-14T08:14:07.423Z,99.90
2018-09-14T08:19:01.944Z,99.90
2018-09-14T08:23:56.525Z,99.90
2018-09-14T08:28:51.288Z,99.90
2018-09-14T08:33:45.776Z,99.90
2018-09-14T08:38:40.420Z,99.90
2018-09-14T08:43:35.224Z,99.90
2018-09-14T08:48:29.750Z,99.90
2018-09-14T08:53:24.216Z,96.20
2018-09-14T08:58:18.809Z,94.80
2018-09-14T09:03:13.658Z,89.10
2018-09-14T09:08:08.438Z,66.30
2018-09-14T09:13:03.218Z,48.90
2018-09-14T09:17:57.981Z,39.60
2018-09-14T09:22:53.126Z,34.00
2018-09-14T09:27:48.126Z,29.60
2018-09-14T09:32:43.202Z,27.00
2018-09-14T09:37:38.158Z,25.80
2018-09-14T09:42:33.404Z,26.20
2018-09-14T09:47:28.172Z,25.80
2018-09-14T09:52:23.119Z,28.20
2018-09-14T09:57:18.308Z,31.50
2018-09-14T10:02:18.291Z,36.40
2018-09-14T10:07:13.486Z,38.70
2018-09-14T10:12:08.224Z,39.40
2018-09-14T10:17:03.402Z,42.60
2018-09-14T10:21:58.150Z,44.30
2018-09-14T10:26:53.003Z,44.70
2018-09-14T10:31:47.910Z,46.20
2018-09-14T10:36:42.400Z,44.30
2018-09-14T10:41:36.902Z,45.90
2018-09-14T10:46:31.472Z,47.00
2018-09-14T10:51:26.136Z,46.60
2018-09-14T10:56:20.642Z,47.50
2018-09-14T11:01:16.238Z,48.60
2018-09-14T11:06:11.156Z,48.80
2018-09-14T11:11:05.818Z,48.50
2018-09-14T11:16:00.434Z,48.20
2018-09-14T11:20:55.244Z,47.90
2018-09-14T11:25:49.766Z,48.20
2018-09-14T11:30:44.228Z,48.60
2018-09-14T11:35:38.716Z,48.80
2018-09-14T11:40:33.231Z,49.00
2018-09-14T11:45:27.710Z,49.00
2018-09-14T11:50:22.211Z,48.50
2018-09-14T11:55:17.273Z,47.60
2018-09-14T12:00:11.827Z,46.60
2018-09-14T12:05:06.724Z,46.10
2018-09-14T12:10:01.203Z,46.70
2018-09-14T12:14:55.792Z,47.20
2018-09-14T12:19:50.274Z,47.50
2018-09-14T12:24:45.077Z,47.20
2018-09-14T12:29:39.733Z,47.90
2018-09-14T12:34:34.204Z,47.60
2018-09-14T12:39:28.672Z,48.10
2018-09-14T12:44:23.136Z,48.60
2018-09-14T12:49:17.624Z,48.10
2018-09-14T12:54:12.222Z,48.00
2018-09-14T12:59:06.919Z,48.40
2018-09-14T13:04:01.586Z,49.40
2018-09-14T13:08:56.249Z,49.20
2018-09-14T13:13:50.768Z,48.60
2018-09-14T13:18:45.236Z,49.00
2018-09-14T13:23:39.699Z,48.20
2018-09-14T13:28:34.203Z,49.00
2018-09-14T13:33:29.102Z,49.00
2018-09-14T13:38:23.590Z,49.60
2018-09-14T13:43:19.382Z,51.70
2018-09-14T13:48:13.950Z,51.30
2018-09-14T13:53:08.433Z,51.30
2018-09-14T13:58:03.065Z,51.50
2018-09-14T14:02:57.554Z,51.50
2018-09-14T14:07:52.172Z,51.00
2018-09-14T14:12:47.259Z,50.30
2018-09-14T14:17:41.812Z,49.80
2018-09-14T14:22:37.369Z,50.70
2018-09-14T14:27:32.271Z,51.20
2018-09-14T14:32:27.186Z,51.00
2018-09-14T14:37:22.140Z,50.80
2018-09-14T14:42:20.376Z,50.00
2018-09-14T14:47:15.388Z,49.30
2018-09-14T14:52:10.377Z,49.60
2018-09-14T14:57:05.383Z,49.90
2018-09-14T15:02:00.320Z,49.50
2018-09-14T15:06:55.190Z,49.40
2018-09-14T15:11:49.937Z,48.50
2018-09-14T15:16:44.960Z,49.00
2018-09-14T15:21:40.223Z,48.80
2018-09-14T15:26:35.428Z,48.70
2018-09-14T15:31:30.406Z,48.70
2018-09-14T15:36:25.313Z,48.90
2018-09-14T15:41:20.548Z,48.10
2018-09-14T15:46:16.472Z,48.00
2018-09-14T15:51:11.062Z,48.30
2018-09-14T15:56:05.720Z,48.30
2018-09-14T16:01:00.786Z,48.30
2018-09-14T16:05:55.844Z,48.50
2018-09-14T16:10:50.444Z,48.80
2018-09-14T16:15:44.902Z,48.80
2018-09-14T16:20:39.910Z,49.00
2018-09-14T16:25:34.742Z,49.50
2018-09-14T16:30:29.464Z,50.00
2018-09-14T16:35:24.133Z,50.60
2018-09-14T16:40:18.747Z,51.20
2018-09-14T16:45:13.871Z,51.50
2018-09-14T16:50:08.344Z,52.40
2018-09-14T16:55:02.916Z,52.90
2018-09-14T16:59:57.550Z,53.70
2018-09-14T17:04:52.186Z,54.60
2018-09-14T17:09:46.690Z,55.30
2018-09-14T17:14:41.232Z,56.00
2018-09-14T17:19:36.214Z,56.70
2018-09-14T17:24:30.844Z,57.60
2018-09-14T17:29:25.360Z,58.40
2018-09-14T17:34:19.877Z,60.00
2018-09-14T17:39:14.429Z,61.20
2018-09-14T17:44:09.069Z,62.70
2018-09-14T17:49:04.730Z,64.00
2018-09-14T17:53:59.538Z,66.40
2018-09-14T17:58:54.286Z,67.70
2018-09-14T18:03:48.766Z,69.40
2018-09-14T18:08:43.226Z,71.60
2018-09-14T18:13:38.231Z,73.10
2018-09-14T18:18:32.866Z,75.10
2018-09-14T18:23:27.568Z,76.50
2018-09-14T18:28:22.067Z,77.60
2018-09-14T18:33:17.055Z,79.30
2018-09-14T18:38:11.567Z,79.90
2018-09-14T18:43:06.275Z,80.40
2018-09-14T18:48:00.740Z,83.20
2018-09-14T18:52:55.444Z,83.70
2018-09-14T18:57:50.016Z,84.40
2018-09-14T19:02:44.539Z,85.30
2018-09-14T19:07:39.332Z,87.10
2018-09-14T19:12:34.292Z,87.80
2018-09-14T19:17:28.856Z,90.10
2018-09-14T19:22:23.534Z,91.00
2018-09-14T19:27:19.665Z,91.90
2018-09-14T19:32:15.223Z,92.40
2018-09-14T19:37:12.135Z,93.10
2018-09-14T19:42:06.701Z,93.20
2018-09-14T19:47:01.314Z,93.70
2018-09-14T19:51:55.893Z,93.90
2018-09-14T19:56:50.652Z,94.40
2018-09-14T20:01:45.144Z,94.60
2018-09-14T20:06:39.600Z,95.10
2018-09-14T20:11:34.739Z,95.20
2018-09-14T20:16:29.664Z,95.70
2018-09-14T20:21:24.180Z,96.30
2018-09-14T20:26:51.755Z,97.10
2018-09-14T20:31:47.652Z,98.90
2018-09-14T20:36:42.180Z,99.60
2018-09-14T20:41:36.915Z,99.80
2018-09-14T20:46:31.484Z,99.90
2018-09-14T20:51:25.994Z,99.90
2018-09-14T20:56:20.481Z,99.90
2018-09-14T21:01:15.190Z,99.90
2018-09-14T21:06:09.880Z,99.90
2018-09-14T21:11:04.518Z,99.90
2018-09-14T21:15:59.005Z,99.90
2018-09-14T21:20:53.495Z,99.90
2018-09-14T21:25:48.127Z,99.90
2018-09-14T21:30:42.682Z,99.90
2018-09-14T21:35:37.187Z,99.90
2018-09-14T21:40:31.862Z,99.90
2018-09-14T21:45:27.646Z,99.90
2018-09-14T21:50:22.142Z,99.90
2018-09-14T21:55:16.641Z,99.90
2018-09-14T22:00:17.262Z,99.90
2018-09-14T22:05:12.051Z,99.90
2018-09-14T22:10:07.169Z,99.90
2018-09-14T22:15:01.902Z,99.90
2018-09-14T22:19:56.690Z,99.90
2018-09-14T22:24:51.180Z,99.90
2018-09-14T22:29:45.937Z,99.90
2018-09-14T22:34:40.576Z,99.90
2018-09-14T22:39:35.097Z,99.90
2018-09-14T22:44:29.639Z,99.90
2018-09-14T22:49:24.155Z,99.90
2018-09-14T22:54:18.773Z,99.90
2018-09-14T22:59:13.445Z,99.90
2018-09-14T23:04:08.225Z,99.90
2018-09-14T23:09:02.839Z,99.90
2018-09-14T23:13:57.836Z,99.90
2018-09-14T23:18:52.274Z,99.90
2018-09-14T23:23:46.717Z,99.90
2018-09-14T23:28:41.201Z,99.90
2018-09-14T23:33:35.995Z,99.90
2018-09-14T23:38:30.789Z,99.90
2018-09-14T23:43:25.277Z,99.90
2018-09-14T23:48:19.871Z,99.90
2018-09-14T23:53:14.440Z,99.90
2018-09-14T23:58:09.424Z,99.90
